createdAt,value
2018-06-13T00:01:59.025Z,4.17
2018-06-13T00:04:28.863Z,5.13
2018-06-13T00:06:59.020Z,4.03
2018-06-13T00:09:28.782Z,4.50
2018-06-13T00:11:58.569Z,4.67
2018-06-13T00:14:28.331Z,5.23
2018-06-13T00:16:58.158Z,4.80
2018-06-13T00:19:27.974Z,4.70
2018-06-13T00:21:58.213Z,4.07
2018-06-13T00:24:28.148Z,4.23
2018-06-13T00:26:57.979Z,4.00
2018-06-13T00:29:27.752Z,4.20
2018-06-13T00:31:57.551Z,4.13
2018-06-13T00:34:27.804Z,4.23
2018-06-13T00:36:58.264Z,4.50
2018-06-13T00:39:30.451Z,4.43
2018-06-13T00:42:00.273Z,4.60
2018-06-13T00:44:30.088Z,4.43
2018-06-13T00:46:59.926Z,4.50
2018-06-13T00:49:29.703Z,4.67
2018-06-13T00:52:00.237Z,4.77
2018-06-13T00:54:29.996Z,4.73
2018-06-13T00:56:59.759Z,4.40
2018-06-13T00:59:29.555Z,4.40
2018-06-13T01:01:59.318Z,3.87
2018-06-13T01:04:29.083Z,4.17
2018-06-13T01:06:59.151Z,4.40
2018-06-13T01:09:28.748Z,4.23
2018-06-13T01:11:58.552Z,4.40
2018-06-13T01:14:28.336Z,3.80
2018-06-13T01:16:58.081Z,4.40
2018-06-13T01:19:27.859Z,3.33
2018-06-13T01:21:57.623Z,4.20
2018-06-13T01:24:27.405Z,3.57
2018-06-13T01:26:57.193Z,3.90
2018-06-13T01:29:26.974Z,3.93
2018-06-13T01:31:56.713Z,4.23
2018-06-13T01:34:26.839Z,4.27
2018-06-13T01:36:56.444Z,3.73
2018-06-13T01:39:25.883Z,3.80
2018-06-13T01:41:55.424Z,3.57
2018-06-13T01:44:24.892Z,3.90
2018-06-13T01:46:54.464Z,3.70
2018-06-13T01:49:24.206Z,4.00
2018-06-13T01:51:54.012Z,4.10
2018-06-13T01:54:23.780Z,3.93
2018-06-13T01:56:53.572Z,4.60
2018-06-13T01:59:23.301Z,3.70
2018-06-13T02:01:53.099Z,4.30
2018-06-13T02:04:23.628Z,4.10
2018-06-13T02:06:53.432Z,4.17
2018-06-13T02:09:23.856Z,4.43
2018-06-13T02:11:53.641Z,3.70
2018-06-13T02:14:23.397Z,3.90
2018-06-13T02:16:53.157Z,4.10
2018-06-13T02:19:22.902Z,3.80
2018-06-13T02:21:52.747Z,4.13
2018-06-13T02:24:22.449Z,4.43
2018-06-13T02:26:52.229Z,4.93
2018-06-13T02:29:21.955Z,4.90
2018-06-13T02:31:51.726Z,4.67
2018-06-13T02:34:22.286Z,4.40
2018-06-13T02:36:52.472Z,4.37
2018-06-13T02:39:22.237Z,4.73
2018-06-13T02:41:52.753Z,4.50
2018-06-13T02:44:22.257Z,4.20
2018-06-13T02:46:51.803Z,4.27
2018-06-13T02:49:21.612Z,4.70
2018-06-13T02:51:51.353Z,4.30
2018-06-13T02:54:21.136Z,4.37
2018-06-13T02:56:50.944Z,4.37
2018-06-13T02:59:20.724Z,4.23
2018-06-13T03:01:50.470Z,4.70
2018-06-13T03:04:20.235Z,4.10
2018-06-13T03:06:50.926Z,4.43
2018-06-13T03:09:20.657Z,4.77
2018-06-13T03:11:50.454Z,5.63
2018-06-13T03:14:20.283Z,4.80
2018-06-13T03:16:50.059Z,4.77
2018-06-13T03:19:19.841Z,4.57
2018-06-13T03:21:49.611Z,5.13
2018-06-13T03:24:19.387Z,5.27
2018-06-13T03:26:49.167Z,4.63
2018-06-13T03:29:18.907Z,4.10
2018-06-13T03:31:48.753Z,4.93
2018-06-13T03:34:18.526Z,4.20
2018-06-13T03:36:48.302Z,4.60
2018-06-13T03:39:18.772Z,4.83
2018-06-13T03:41:49.204Z,4.70
2018-06-13T03:44:18.445Z,4.37
2018-06-13T03:46:48.827Z,4.37
2018-06-13T03:49:18.592Z,4.57
2018-06-13T03:51:48.335Z,4.53
2018-06-13T03:54:18.084Z,3.70
2018-06-13T03:56:48.747Z,4.80
2018-06-13T03:59:18.503Z,4.93
2018-06-13T04:01:48.957Z,4.70
2018-06-13T04:04:18.785Z,4.77
2018-06-13T04:06:48.585Z,5.13
2018-06-13T04:09:18.364Z,4.03
2018-06-13T04:11:48.141Z,5.00
2018-06-13T04:14:17.896Z,4.50
2018-06-13T04:16:47.701Z,4.63
2018-06-13T04:19:17.488Z,5.50
2018-06-13T04:21:47.748Z,5.30
2018-06-13T04:24:17.652Z,5.40
2018-06-13T04:26:47.522Z,5.07
2018-06-13T04:29:18.186Z,5.57
2018-06-13T04:31:47.987Z,5.27
2018-06-13T04:34:17.752Z,4.13
2018-06-13T04:36:47.648Z,5.17
2018-06-13T04:39:17.493Z,4.77
2018-06-13T04:41:47.261Z,4.77
2018-06-13T04:44:17.081Z,5.03
2018-06-13T04:46:46.845Z,6.00
2018-06-13T04:49:16.605Z,5.47
2018-06-13T04:51:46.423Z,5.30
2018-06-13T04:54:16.972Z,5.67
2018-06-13T04:56:47.404Z,5.00
2018-06-13T04:59:16.981Z,5.97
2018-06-13T05:01:46.739Z,5.83
2018-06-13T05:04:16.528Z,5.77
2018-06-13T05:06:46.416Z,5.30
2018-06-13T05:09:16.218Z,4.67
2018-06-13T05:11:45.977Z,6.10
2018-06-13T05:14:15.412Z,5.17
2018-06-13T05:16:44.991Z,5.40
2018-06-13T05:19:14.781Z,6.10
2018-06-13T05:21:44.584Z,6.30
2018-06-13T05:24:14.452Z,5.30
2018-06-13T05:26:44.231Z,5.17
2018-06-13T05:29:14.476Z,6.00
2018-06-13T05:31:44.320Z,5.90
2018-06-13T05:34:14.097Z,6.10
2018-06-13T05:36:44.503Z,6.03
2018-06-13T05:39:14.341Z,6.37
2018-06-13T05:41:44.130Z,5.70
2018-06-13T05:44:13.922Z,5.17
2018-06-13T05:46:43.761Z,5.83
2018-06-13T05:49:17.080Z,6.10
2018-06-13T05:51:46.858Z,5.57
2018-06-13T05:54:16.688Z,5.60
2018-06-13T05:56:46.466Z,4.77
2018-06-13T05:59:16.230Z,5.27
2018-06-13T06:01:46.345Z,4.90
2018-06-13T06:04:16.155Z,5.37
2018-06-13T06:06:46.196Z,5.57
2018-06-13T06:09:15.630Z,4.27
2018-06-13T06:11:45.225Z,6.13
2018-06-13T06:14:15.048Z,4.97
2018-06-13T06:16:44.807Z,5.40
2018-06-13T06:19:14.587Z,4.80
2018-06-13T06:21:44.356Z,4.83
2018-06-13T06:24:14.171Z,4.90
2018-06-13T06:26:44.149Z,5.13
2018-06-13T06:29:13.964Z,5.00
2018-06-13T06:31:43.579Z,5.50
2018-06-13T06:34:12.844Z,4.57
2018-06-13T06:36:42.484Z,4.00
2018-06-13T06:39:12.289Z,6.03
2018-06-13T06:41:42.110Z,5.20
2018-06-13T06:44:11.902Z,4.83
2018-06-13T06:46:41.711Z,4.93
2018-06-13T06:49:11.549Z,4.10
2018-06-13T06:51:41.430Z,4.63
2018-06-13T06:54:11.223Z,5.03
2018-06-13T06:56:41.009Z,5.27
2018-06-13T06:59:11.376Z,5.10
2018-06-13T07:01:41.393Z,5.80
2018-06-13T07:04:11.222Z,5.80
2018-06-13T07:06:41.687Z,5.33
2018-06-13T07:09:11.524Z,5.60
2018-06-13T07:11:40.994Z,5.10
2018-06-13T07:14:10.539Z,5.10
2018-06-13T07:16:40.308Z,6.20
2018-06-13T07:19:10.108Z,5.30
2018-06-13T07:21:39.857Z,4.70
2018-06-13T07:24:09.605Z,4.97
2018-06-13T07:26:39.376Z,4.90
2018-06-13T07:29:09.107Z,5.73
2018-06-13T07:31:38.553Z,5.60
2018-06-13T07:34:08.113Z,5.30
2018-06-13T07:36:38.204Z,6.17
2018-06-13T07:39:09.267Z,6.37
2018-06-13T07:41:39.100Z,5.20
2018-06-13T07:44:10.351Z,6.53
2018-06-13T07:46:40.157Z,5.63
2018-06-13T07:49:09.911Z,4.73
2018-06-13T07:51:40.319Z,4.13
2018-06-13T07:54:10.109Z,4.53
2018-06-13T07:56:39.936Z,4.00
2018-06-13T07:59:09.761Z,3.40
2018-06-13T08:01:39.556Z,4.37
2018-06-13T08:04:09.389Z,3.60
2018-06-13T08:06:39.272Z,3.60
2018-06-13T08:09:09.105Z,3.73
2018-06-13T08:11:38.932Z,3.20
2018-06-13T08:14:09.002Z,2.83
2018-06-13T08:16:39.181Z,2.90
2018-06-13T08:19:09.662Z,3.30
2018-06-13T08:21:39.446Z,2.90
2018-06-13T08:24:09.345Z,2.50
2018-06-13T08:26:39.252Z,3.30
2018-06-13T08:29:09.053Z,3.20
2018-06-13T08:31:38.509Z,3.00
2018-06-13T08:34:08.064Z,2.43
2018-06-13T08:36:38.806Z,3.17
2018-06-13T08:39:09.402Z,2.47
2018-06-13T08:41:39.160Z,3.10
2018-06-13T08:44:09.881Z,2.40
2018-06-13T08:46:39.665Z,2.60
2018-06-13T08:49:09.525Z,2.90
2018-06-13T08:51:39.436Z,2.80
2018-06-13T08:54:09.311Z,2.70
2018-06-13T08:56:39.066Z,2.80
2018-06-13T08:59:08.527Z,4.80
2018-06-13T09:01:38.898Z,4.03
2018-06-13T09:04:08.758Z,2.83
2018-06-13T09:06:38.579Z,2.40
2018-06-13T09:09:08.830Z,2.93
2018-06-13T09:11:38.644Z,3.27
2018-06-13T09:14:08.882Z,2.80
2018-06-13T09:16:38.664Z,2.27
2018-06-13T09:19:08.422Z,2.43
2018-06-13T09:21:38.261Z,2.87
2018-06-13T09:24:08.069Z,2.70
2018-06-13T09:26:38.413Z,2.70
2018-06-13T09:29:07.904Z,1.97
2018-06-13T09:31:37.553Z,2.97
2018-06-13T09:34:07.412Z,2.23
2018-06-13T09:36:37.227Z,2.23
2018-06-13T09:39:07.709Z,2.27
2018-06-13T09:41:42.752Z,2.63
2018-06-13T09:44:12.569Z,1.93
2018-06-13T09:46:48.918Z,2.03
2018-06-13T09:49:13.716Z,2.63
2018-06-13T09:51:43.786Z,2.00
2018-06-13T09:54:13.560Z,2.30
2018-06-13T09:56:43.369Z,2.53
2018-06-13T09:59:18.079Z,2.60
2018-06-13T10:01:53.060Z,2.70
2018-06-13T10:04:22.604Z,2.43
2018-06-13T10:06:52.233Z,2.43
2018-06-13T10:09:22.046Z,2.17
2018-06-13T10:11:51.830Z,2.00
2018-06-13T10:14:21.304Z,2.37
2018-06-13T10:16:50.954Z,2.33
2018-06-13T10:19:20.753Z,1.80
2018-06-13T10:21:50.535Z,2.37
2018-06-13T10:24:20.389Z,2.20
2018-06-13T10:26:49.809Z,2.80
2018-06-13T10:29:19.868Z,2.07
2018-06-13T10:31:49.937Z,2.50
2018-06-13T10:34:19.959Z,2.60
2018-06-13T10:36:50.345Z,2.87
2018-06-13T10:39:20.184Z,2.70
2018-06-13T10:41:50.843Z,3.20
2018-06-13T10:44:20.637Z,3.30
2018-06-13T10:46:50.427Z,2.60
2018-06-13T10:49:20.265Z,2.73
2018-06-13T10:51:50.016Z,2.80
2018-06-13T10:54:20.111Z,3.27
2018-06-13T10:56:49.963Z,3.10
2018-06-13T10:59:19.825Z,3.47
2018-06-13T11:01:49.589Z,2.73
2018-06-13T11:04:19.920Z,2.60
2018-06-13T11:06:49.710Z,2.67
2018-06-13T11:09:19.480Z,3.13
2018-06-13T11:11:49.477Z,2.90
2018-06-13T11:14:19.680Z,2.53
2018-06-13T11:16:49.240Z,2.87
2018-06-13T11:19:19.067Z,2.20
2018-06-13T11:21:48.902Z,3.03
2018-06-13T11:24:19.309Z,2.77
2018-06-13T11:26:49.153Z,2.27
2018-06-13T11:29:18.902Z,2.20
2018-06-13T11:31:48.847Z,2.53
2018-06-13T11:34:18.659Z,2.53
2018-06-13T11:36:48.466Z,2.50
2018-06-13T11:39:18.905Z,2.23
2018-06-13T11:41:48.715Z,2.50
2018-06-13T11:44:19.198Z,5.33
2018-06-13T11:46:50.824Z,2.20
2018-06-13T11:49:21.241Z,2.50
2018-06-13T11:51:51.095Z,2.63
2018-06-13T11:54:21.345Z,2.90
2018-06-13T11:56:51.164Z,3.00
2018-06-13T11:59:20.960Z,2.70
2018-06-13T12:01:50.858Z,2.87
2018-06-13T12:04:20.561Z,3.20
2018-06-13T12:06:50.380Z,2.70
2018-06-13T12:09:20.153Z,3.00
2018-06-13T12:11:49.953Z,3.97
2018-06-13T12:14:19.758Z,3.17
2018-06-13T12:16:49.556Z,3.20
2018-06-13T12:19:19.390Z,3.00
2018-06-13T12:21:49.160Z,3.00
2018-06-13T12:24:18.647Z,3.20
2018-06-13T12:26:48.854Z,3.27
2018-06-13T12:29:18.870Z,3.17
2018-06-13T12:31:49.744Z,3.10
2018-06-13T12:34:19.621Z,2.80
2018-06-13T12:36:50.307Z,3.23
2018-06-13T12:39:20.571Z,3.23
2018-06-13T12:41:50.349Z,3.20
2018-06-13T12:44:20.123Z,3.23
2018-06-13T12:46:51.698Z,3.60
2018-06-13T12:49:22.667Z,2.93
2018-06-13T12:51:56.280Z,2.90
2018-06-13T12:54:26.144Z,3.20
2018-06-13T12:56:56.272Z,3.37
2018-06-13T12:59:26.200Z,3.13
2018-06-13T13:01:56.009Z,3.97
2018-06-13T13:04:25.865Z,2.97
2018-06-13T13:06:55.743Z,2.93
2018-06-13T13:09:25.546Z,3.40
2018-06-13T13:11:55.059Z,14.87
2018-06-13T13:14:24.629Z,3.43
2018-06-13T13:16:54.405Z,9.83
2018-06-13T13:19:24.930Z,3.40
2018-06-13T13:21:54.856Z,3.57
2018-06-13T13:24:24.468Z,3.07
2018-06-13T13:26:54.269Z,2.90
2018-06-13T13:29:24.091Z,3.00
2018-06-13T13:31:53.952Z,4.00
2018-06-13T13:34:24.008Z,3.27
2018-06-13T13:36:54.420Z,3.30
2018-06-13T13:39:24.828Z,3.33
2018-06-13T13:41:54.674Z,3.30
2018-06-13T13:44:24.587Z,2.70
2018-06-13T13:46:54.432Z,2.37
2018-06-13T13:49:24.289Z,3.17
2018-06-13T13:51:54.096Z,2.77
2018-06-13T13:54:24.289Z,2.83
2018-06-13T13:56:54.084Z,3.17
2018-06-13T13:59:23.924Z,3.57
2018-06-13T14:01:54.492Z,3.17
2018-06-13T14:04:24.341Z,3.50
2018-06-13T14:06:54.194Z,3.27
2018-06-13T14:09:24.042Z,3.70
2018-06-13T14:11:54.954Z,4.50
2018-06-13T14:14:24.734Z,2.67
2018-06-13T14:16:54.600Z,2.63
2018-06-13T14:19:24.406Z,2.40
2018-06-13T14:21:54.248Z,3.07
2018-06-13T14:24:24.081Z,2.83
2018-06-13T14:26:53.938Z,2.87
2018-06-13T14:29:23.649Z,3.37
2018-06-13T14:31:53.514Z,2.80
2018-06-13T14:34:23.317Z,3.53
2018-06-13T14:36:53.129Z,3.23
2018-06-13T14:39:23.264Z,3.27
2018-06-13T14:41:53.821Z,3.33
2018-06-13T14:44:23.701Z,2.93
2018-06-13T14:46:53.524Z,2.53
2018-06-13T14:49:23.392Z,2.80
2018-06-13T14:51:54.565Z,2.27
2018-06-13T14:54:24.445Z,2.93
2018-06-13T14:56:54.395Z,2.80
2018-06-13T14:59:24.678Z,3.73
2018-06-13T15:01:55.156Z,2.60
2018-06-13T15:04:28.101Z,2.60
2018-06-13T15:06:58.319Z,2.70
2018-06-13T15:09:28.121Z,2.83
2018-06-13T15:11:58.550Z,2.90
2018-06-13T15:14:28.360Z,2.60
2018-06-13T15:16:58.291Z,2.63
2018-06-13T15:19:28.152Z,2.50
2018-06-13T15:21:57.955Z,2.80
2018-06-13T15:24:27.716Z,2.40
2018-06-13T15:26:57.508Z,2.23
2018-06-13T15:29:27.907Z,2.97
2018-06-13T15:31:57.724Z,2.80
2018-06-13T15:34:27.556Z,2.63
2018-06-13T15:36:57.888Z,2.50
2018-06-13T15:39:28.608Z,2.60
2018-06-13T15:41:58.488Z,2.60
2018-06-13T15:44:28.548Z,2.77
2018-06-13T15:46:58.410Z,2.90
2018-06-13T15:49:29.080Z,3.93
2018-06-13T15:51:58.994Z,2.40
2018-06-13T15:54:28.822Z,2.77
2018-06-13T15:56:58.629Z,3.07
2018-06-13T15:59:28.477Z,2.80
2018-06-13T16:01:58.412Z,2.97
2018-06-13T16:04:27.931Z,3.00
2018-06-13T16:06:57.237Z,2.90
2018-06-13T16:09:26.813Z,2.70
2018-06-13T16:11:56.598Z,2.23
2018-06-13T16:14:26.892Z,2.60
2018-06-13T16:16:56.674Z,2.70
2018-06-13T16:19:27.220Z,2.80
2018-06-13T16:24:34.408Z,3.30
2018-06-13T16:27:04.273Z,3.30
2018-06-13T16:29:35.256Z,3.20
2018-06-13T16:32:05.247Z,3.10
2018-06-13T16:34:34.852Z,3.17
2018-06-13T16:37:04.754Z,2.90
2018-06-13T16:39:34.742Z,2.50
2018-06-13T16:42:04.578Z,2.83
2018-06-13T16:44:34.391Z,5.03
2018-06-13T16:47:04.611Z,3.00
2018-06-13T16:49:34.512Z,3.00
2018-06-13T16:52:15.816Z,2.67
2018-06-13T16:54:54.519Z,2.50
2018-06-13T16:57:24.352Z,2.87
2018-06-13T16:59:54.166Z,2.50
2018-06-13T17:02:24.050Z,2.57
2018-06-13T17:04:53.618Z,3.00
2018-06-13T17:07:23.218Z,2.50
2018-06-13T17:09:53.457Z,2.80
2018-06-13T17:12:23.049Z,3.20
2018-06-13T17:14:53.785Z,2.50
2018-06-13T17:17:23.566Z,2.67
2018-06-13T17:19:53.477Z,2.97
2018-06-13T17:22:23.792Z,2.87
2018-06-13T17:24:55.094Z,2.60
2018-06-13T17:27:24.943Z,2.20
2018-06-13T17:29:55.773Z,2.70
2018-06-13T17:32:26.020Z,2.40
2018-06-13T17:34:55.752Z,2.50
2018-06-13T17:37:25.522Z,2.83
2018-06-13T17:39:55.342Z,2.93
2018-06-13T17:42:25.208Z,3.07
2018-06-13T17:44:55.518Z,3.10
2018-06-13T17:47:25.381Z,3.03
2018-06-13T17:49:56.277Z,3.07
2018-06-13T17:52:26.112Z,2.23
2018-06-13T17:54:55.935Z,3.00
2018-06-13T17:57:25.769Z,2.97
2018-06-13T17:59:55.778Z,3.00
2018-06-13T18:02:26.065Z,2.50
2018-06-13T18:04:55.929Z,2.77
2018-06-13T18:07:25.733Z,2.37
2018-06-13T18:09:55.562Z,2.67
2018-06-13T18:12:25.638Z,3.40
2018-06-13T18:14:55.500Z,2.50
2018-06-13T18:17:25.436Z,2.40
2018-06-13T18:19:55.340Z,3.10
2018-06-13T18:22:25.277Z,3.27
2018-06-13T18:24:54.858Z,3.40
2018-06-13T18:27:24.519Z,2.70
2018-06-13T18:29:54.605Z,2.80
2018-06-13T18:32:24.434Z,3.10
2018-06-13T18:34:54.933Z,2.67
2018-06-13T18:37:24.786Z,2.20
2018-06-13T18:39:54.418Z,2.73
2018-06-13T18:42:24.479Z,2.73
2018-06-13T18:44:53.957Z,2.73
2018-06-13T18:47:24.470Z,2.20
2018-06-13T18:49:54.553Z,3.27
2018-06-13T18:52:24.457Z,2.90
2018-06-13T18:54:54.861Z,2.60
2018-06-13T18:57:24.873Z,2.23
2018-06-13T18:59:56.088Z,2.57
2018-06-13T19:02:25.898Z,2.20
2018-06-13T19:04:55.673Z,2.67
2018-06-13T19:07:25.285Z,2.57
2018-06-13T19:09:54.904Z,2.73
2018-06-13T19:12:26.153Z,3.20
2018-06-13T19:14:56.018Z,2.77
2018-06-13T19:17:26.005Z,2.30
2018-06-13T19:19:55.868Z,2.57
2018-06-13T19:22:26.442Z,2.80
2018-06-13T19:24:56.332Z,2.93
2018-06-13T19:27:26.446Z,2.20
2018-06-13T19:29:56.372Z,3.03
2018-06-13T19:32:26.242Z,2.70
2018-06-13T19:34:57.646Z,2.67
2018-06-13T19:37:27.564Z,2.50
2018-06-13T19:39:57.455Z,2.60
2018-06-13T19:42:26.959Z,2.90
2018-06-13T19:44:56.730Z,3.03
2018-06-13T19:47:31.910Z,2.70
2018-06-13T19:50:02.736Z,2.27
2018-06-13T19:52:37.946Z,2.50
2018-06-13T19:55:13.641Z,2.97
2018-06-13T19:57:43.717Z,3.00
2018-06-13T20:00:14.453Z,2.97
2018-06-13T20:02:50.246Z,2.33
2018-06-13T20:05:25.640Z,3.03
2018-06-13T20:07:55.527Z,2.83
2018-06-13T20:10:26.217Z,3.20
2018-06-13T20:13:01.361Z,2.87
2018-06-13T20:15:36.783Z,3.40
2018-06-13T20:18:11.766Z,4.07
2018-06-13T20:20:41.477Z,3.70
2018-06-13T20:23:11.979Z,4.83
2018-06-13T20:25:47.697Z,3.23
2018-06-13T20:28:23.120Z,3.50
2018-06-13T20:30:58.291Z,2.90
2018-06-13T20:33:28.038Z,3.47
2018-06-13T20:35:57.845Z,3.73
2018-06-13T20:38:27.676Z,3.00
2018-06-13T20:40:57.512Z,3.13
2018-06-13T20:43:27.470Z,4.57
2018-06-13T20:45:57.280Z,3.20
2018-06-13T20:48:27.307Z,3.80
2018-06-13T20:50:57.086Z,3.33
2018-06-13T20:53:26.885Z,3.70
2018-06-13T20:55:57.534Z,4.17
2018-06-13T20:58:27.372Z,4.00
2018-06-13T21:00:57.358Z,3.77
2018-06-13T21:03:27.693Z,3.80
2018-06-13T21:05:57.538Z,3.60
2018-06-13T21:08:27.607Z,4.47
2018-06-13T21:10:57.375Z,5.60
2018-06-13T21:13:27.332Z,4.57
2018-06-13T21:15:56.945Z,5.27
2018-06-13T21:18:26.562Z,4.60
2018-06-13T21:20:56.350Z,4.30
2018-06-13T21:23:26.216Z,4.13
2018-06-13T21:25:56.040Z,5.00
2018-06-13T21:28:26.777Z,5.17
2018-06-13T21:30:56.812Z,4.60
2018-06-13T21:33:26.681Z,5.10
2018-06-13T21:35:56.155Z,4.60
2018-06-13T21:38:25.790Z,3.63
2018-06-13T21:40:55.552Z,4.43
2018-06-13T21:43:25.405Z,4.10
2018-06-13T21:45:54.941Z,4.40
2018-06-13T21:48:24.604Z,4.90
2018-06-13T21:50:54.380Z,4.60
2018-06-13T21:53:25.123Z,4.57
2018-06-13T21:55:55.609Z,4.20
2018-06-13T21:58:25.522Z,4.37
2018-06-13T22:00:55.770Z,4.87
2018-06-13T22:03:25.580Z,4.60
2018-06-13T22:05:55.079Z,5.33
2018-06-13T22:08:24.665Z,5.47
2018-06-13T22:10:54.511Z,5.00
2018-06-13T22:13:24.350Z,6.23
2018-06-13T22:15:54.128Z,6.00
2018-06-13T22:18:23.978Z,5.97
2018-06-13T22:20:53.731Z,5.90
2018-06-13T22:23:23.494Z,6.30
2018-06-13T22:25:53.382Z,6.00
2018-06-13T22:28:23.148Z,6.10
2018-06-13T22:30:53.564Z,6.10
2018-06-13T22:33:23.341Z,6.07
2018-06-13T22:35:53.108Z,6.87
2018-06-13T22:38:23.245Z,6.20
2018-06-13T22:40:53.120Z,6.67
2018-06-13T22:43:22.882Z,5.80
2018-06-13T22:45:52.696Z,6.03
2018-06-13T22:48:22.521Z,6.13
2018-06-13T22:50:52.336Z,5.73
2018-06-13T22:53:22.118Z,6.00
2018-06-13T22:55:51.864Z,6.30
2018-06-13T22:58:21.668Z,6.37
2018-06-13T23:00:59.892Z,6.13
2018-06-13T23:03:30.408Z,5.40
2018-06-13T23:06:02.152Z,6.00
2018-06-13T23:08:33.017Z,6.83
2018-06-13T23:11:03.507Z,6.83
2018-06-13T23:13:33.287Z,4.90
2018-06-13T23:16:03.152Z,6.10
2018-06-13T23:18:32.962Z,5.70
2018-06-13T23:21:02.769Z,6.37
2018-06-13T23:23:33.329Z,5.83
2018-06-13T23:26:02.786Z,5.63
2018-06-13T23:28:32.421Z,6.33
2018-06-13T23:31:02.540Z,5.80
2018-06-13T23:33:32.364Z,5.93
2018-06-13T23:36:02.275Z,6.43
2018-06-13T23:38:32.080Z,5.20
2018-06-13T23:41:01.832Z,6.03
2018-06-13T23:43:31.587Z,6.30
2018-06-13T23:46:01.359Z,6.10
2018-06-13T23:48:31.160Z,6.30
2018-06-13T23:51:01.369Z,6.10
2018-06-13T23:53:30.796Z,6.03
2018-06-13T23:56:00.384Z,6.07
2018-06-13T23:58:30.908Z,6.37
